Wetterstation Vordersexau
Wetterdaten: Woche 09.12.13 - 15.12.13 (KW50)
Datum Zeit Temp. A. Feuchte A. Luftdruck Regen Wind Richtung Taupunkt Windchill Windben
09.12.2013 00:00 -0,9 C 86 % 1029,7 hPa 0,0 l/m 0,0 km/h O -2,9 C -0,9 C 0,0 km/h
09.12.2013 01:00 -0,7 C 85 % 1029,3 hPa 0,0 l/m 0,0 km/h O-NO -2,9 C -0,7 C 0,0 km/h
09.12.2013 02:00 -0,7 C 85 % 1029,6 hPa 0,0 l/m 0,0 km/h N-NO -2,9 C -0,7 C 0,0 km/h
09.12.2013 03:00 -0,9 C 84 % 1029,5 hPa 0,0 l/m 0,0 km/h N-NO -3,3 C -0,9 C 0,0 km/h
09.12.2013 04:00 -1,4 C 85 % 1029,0 hPa 0,0 l/m 0,0 km/h N-NO -3,6 C -1,4 C 0,0 km/h
09.12.2013 05:00 -2,7 C 86 % 1029,1 hPa 0,0 l/m 0,0 km/h N-NO -4,7 C -2,7 C 0,0 km/h
09.12.2013 06:00 -3,0 C 86 % 1029,1 hPa 0,0 l/m 0,0 km/h N-NO -5,0 C -3,0 C 0,0 km/h
09.12.2013 07:00 -2,9 C 85 % 1029,2 hPa 0,0 l/m 0,0 km/h N-NO -5,1 C -2,9 C 0,0 km/h
09.12.2013 08:00 -3,3 C 85 % 1029,2 hPa 0,0 l/m 0,0 km/h N-NO -5,5 C -3,3 C 0,0 km/h
09.12.2013 09:00 -0,1 C 79 % 1029,8 hPa 0,0 l/m 0,0 km/h N-NO -3,3 C -0,1 C 0,0 km/h
09.12.2013 10:00 7,9 C 82 % 1030,2 hPa 0,0 l/m 0,0 km/h W-NW 5,0 C 7,9 C 0,0 km/h
09.12.2013 11:00 9,3 C 71 % 1030,3 hPa 0,0 l/m 0,0 km/h W 4,3 C 9,3 C 0,0 km/h
09.12.2013 12:00 10,6 C 66 % 1030,0 hPa 0,0 l/m 1,3 km/h W-SW 4,5 C 10,6 C 0,7 km/h
09.12.2013 13:00 10,4 C 65 % 1029,9 hPa 0,0 l/m 1,9 km/h SW 4,1 C 10,4 C 1,1 km/h
09.12.2013 14:00 10,9 C 62 % 1029,7 hPa 0,0 l/m 1,9 km/h W-SW 3,9 C 10,9 C 1,1 km/h
09.12.2013 15:00 10,9 C 62 % 1029,8 hPa 0,0 l/m 0,0 km/h W-SW 3,9 C 10,9 C 0,0 km/h
09.12.2013 16:00 9,0 C 65 % 1029,6 hPa 0,0 l/m 0,0 km/h W-SW 2,8 C 9,0 C 0,0 km/h
09.12.2013 17:00 1,3 C 79 % 1030,0 hPa 0,0 l/m 0,0 km/h S -1,9 C 1,3 C 0,0 km/h
09.12.2013 18:00 0,4 C 84 % 1030,0 hPa 0,0 l/m 0,0 km/h S-SO -2,0 C 0,4 C 0,0 km/h
09.12.2013 19:00 -0,1 C 85 % 1030,1 hPa 0,0 l/m 0,0 km/h NO -2,3 C -0,1 C 0,0 km/h
09.12.2013 20:00 -0,6 C 86 % 1030,4 hPa 0,0 l/m 0,0 km/h NO -2,6 C -0,6 C 0,0 km/h
09.12.2013 21:00 -1,1 C 86 % 1031,0 hPa 0,0 l/m 0,0 km/h N-NO -3,1 C -1,1 C 0,0 km/h
09.12.2013 22:00 -1,2 C 86 % 1031,3 hPa 0,0 l/m 0,0 km/h O-NO -3,2 C -1,2 C 0,0 km/h
09.12.2013 23:00 -1,8 C 86 % 1031,4 hPa 0,0 l/m 0,0 km/h NO -3,8 C -1,8 C 0,0 km/h
10.12.2013 00:00 -1,9 C 86 % 1031,3 hPa 0,0 l/m 0,0 km/h NO -3,9 C -1,9 C 0,0 km/h
10.12.2013 01:00 -2,0 C 86 % 1031,5 hPa 0,0 l/m 0,0 km/h NO -4,0 C -2,0 C 0,0 km/h
10.12.2013 02:00 -2,4 C 86 % 1031,5 hPa 0,0 l/m 0,0 km/h O-NO -4,4 C -2,4 C 0,0 km/h
10.12.2013 03:00 -2,5 C 85 % 1031,8 hPa 0,0 l/m 0,0 km/h O-SO -4,7 C -2,5 C 0,0 km/h
10.12.2013 04:00 -2,5 C 85 % 1031,8 hPa 0,0 l/m 0,0 km/h O-SO -4,7 C -2,5 C 0,0 km/h
10.12.2013 05:00 -2,6 C 85 % 1031,5 hPa 0,0 l/m 0,0 km/h O-SO -4,8 C -2,6 C 0,0 km/h
10.12.2013 06:00 -2,7 C 84 % 1031,0 hPa 0,0 l/m 0,0 km/h NO -5,0 C -2,7 C 0,0 km/h
10.12.2013 07:00 -2,7 C 84 % 1031,2 hPa 0,0 l/m 0,0 km/h NO -5,0 C -2,7 C 0,0 km/h
10.12.2013 08:00 -3,0 C 84 % 1031,8 hPa 0,0 l/m 0,0 km/h NO -5,3 C -3,0 C 0,0 km/h
10.12.2013 09:00 0,9 C 78 % 1032,0 hPa 0,0 l/m 0,0 km/h NO -2,5 C 0,9 C 0,0 km/h
10.12.2013 10:00 7,6 C 83 % 1032,2 hPa 0,5 l/m 0,0 km/h N-NW 4,9 C 7,6 C 0,0 km/h
10.12.2013 11:00 9,9 C 69 % 1032,2 hPa 0,0 l/m 0,0 km/h W 4,5 C 9,9 C 0,0 km/h
10.12.2013 12:00 9,9 C 65 % 1031,8 hPa 0,0 l/m 0,0 km/h W 3,6 C 9,9 C 0,0 km/h
10.12.2013 13:00 9,4 C 66 % 1031,5 hPa 0,0 l/m 0,0 km/h W-SW 3,4 C 9,4 C 0,0 km/h
10.12.2013 14:00 10,6 C 64 % 1031,5 hPa 0,0 l/m 0,0 km/h NW 4,1 C 10,6 C 0,0 km/h
10.12.2013 15:00 12,5 C 58 % 1031,6 hPa 0,0 l/m 0,0 km/h NW 4,5 C 12,5 C 0,0 km/h
10.12.2013 16:00 10,3 C 61 % 1031,8 hPa 0,0 l/m 0,0 km/h NW 3,1 C 10,3 C 0,0 km/h
10.12.2013 17:00 1,9 C 76 % 1032,2 hPa 0,0 l/m 0,0 km/h NW -1,9 C 1,9 C 0,0 km/h
10.12.2013 18:00 0,1 C 82 % 1032,2 hPa 0,0 l/m 0,0 km/h N-NO -2,6 C 0,1 C 0,0 km/h
10.12.2013 19:00 -0,1 C 85 % 1032,3 hPa 0,0 l/m 0,0 km/h N-NO -2,3 C -0,1 C 0,0 km/h
10.12.2013 20:00 -1,2 C 86 % 1032,4 hPa 0,0 l/m 0,0 km/h N-NO -3,2 C -1,2 C 0,0 km/h
10.12.2013 21:00 -1,4 C 86 % 1032,4 hPa 0,0 l/m 0,0 km/h NO -3,4 C -1,4 C 0,0 km/h
10.12.2013 22:00 -1,6 C 86 % 1032,6 hPa 0,0 l/m 0,0 km/h O-NO -3,6 C -1,6 C 0,0 km/h
10.12.2013 23:00 -1,8 C 86 % 1032,3 hPa 0,0 l/m 0,0 km/h NO -3,8 C -1,8 C 0,0 km/h
11.12.2013 00:00 -1,9 C 86 % 1032,3 hPa 0,0 l/m 0,0 km/h NO -3,9 C -1,9 C 0,0 km/h
11.12.2013 01:00 -2,2 C 85 % 1032,0 hPa 0,0 l/m 0,0 km/h NO -4,4 C -2,2 C 0,0 km/h
11.12.2013 02:00 -2,3 C 85 % 1032,1 hPa 0,0 l/m 0,0 km/h NO -4,5 C -2,3 C 0,0 km/h
11.12.2013 03:00 -2,8 C 85 % 1032,5 hPa 0,0 l/m 0,0 km/h NO -5,0 C -2,8 C 0,0 km/h
11.12.2013 04:00 -2,9 C 85 % 1032,2 hPa 0,0 l/m 0,0 km/h O-NO -5,1 C -2,9 C 0,0 km/h
11.12.2013 05:00 -2,7 C 85 % 1031,9 hPa 0,0 l/m 0,0 km/h NO -4,9 C -2,7 C 0,0 km/h
11.12.2013 06:00 -2,9 C 85 % 1032,2 hPa 0,0 l/m 0,0 km/h NO -5,1 C -2,9 C 0,0 km/h
11.12.2013 07:00 -2,7 C 85 % 1031,9 hPa 0,0 l/m 0,0 km/h NO -4,9 C -2,7 C 0,0 km/h
11.12.2013 08:00 -3,0 C 84 % 1031,9 hPa 0,0 l/m 0,0 km/h NO -5,3 C -3,0 C 0,0 km/h
11.12.2013 09:00 1,9 C 80 % 1032,3 hPa 0,0 l/m 0,0 km/h NO -1,2 C 1,9 C 0,0 km/h
11.12.2013 10:00 8,4 C 83 % 1032,4 hPa 0,0 l/m 0,0 km/h NW 5,7 C 8,4 C 0,0 km/h
11.12.2013 11:00 7,9 C 74 % 1032,2 hPa 0,0 l/m 0,0 km/h W 3,6 C 7,9 C 0,0 km/h
11.12.2013 12:00 8,2 C 71 % 1031,4 hPa 0,0 l/m 0,6 km/h W 3,3 C 8,2 C 0,4 km/h
11.12.2013 13:00 8,0 C 71 % 1030,9 hPa 0,0 l/m 1,3 km/h W 3,1 C 8,0 C 0,7 km/h
11.12.2013 14:00 8,2 C 68 % 1030,5 hPa 0,0 l/m 0,0 km/h NW 2,7 C 8,2 C 0,0 km/h
11.12.2013 15:00 6,3 C 69 % 1030,4 hPa 0,0 l/m 0,0 km/h W 1,0 C 6,3 C 0,0 km/h
11.12.2013 16:00 0,1 C 84 % 1030,2 hPa 0,0 l/m 0,0 km/h W-NW -2,3 C 0,1 C 0,0 km/h
11.12.2013 17:00 -0,7 C 86 % 1030,3 hPa 0,0 l/m 0,0 km/h W-NW -2,7 C -0,7 C 0,0 km/h
11.12.2013 18:00 -0,8 C 86 % 1030,4 hPa 0,0 l/m 0,0 km/h W-NW -2,8 C -0,8 C 0,0 km/h
11.12.2013 19:00 -1,1 C 86 % 1030,6 hPa 0,0 l/m 0,0 km/h W-NW -3,1 C -1,1 C 0,0 km/h
11.12.2013 20:00 -1,2 C 86 % 1030,5 hPa 0,0 l/m 0,0 km/h W-NW -3,2 C -1,2 C 0,0 km/h
11.12.2013 21:00 -1,4 C 85 % 1030,6 hPa 0,0 l/m 0,0 km/h W-NW -3,6 C -1,4 C 0,0 km/h
11.12.2013 22:00 -1,4 C 85 % 1030,5 hPa 0,0 l/m 0,0 km/h W-NW -3,6 C -1,4 C 0,0 km/h
11.12.2013 23:00 -1,4 C 85 % 1030,4 hPa 0,0 l/m 0,0 km/h W-NW -3,6 C -1,4 C 0,0 km/h
12.12.2013 00:00 -1,6 C 85 % 1030,2 hPa 0,0 l/m 0,0 km/h W-NW -3,8 C -1,6 C 0,0 km/h
12.12.2013 01:00 -1,6 C 84 % 1030,4 hPa 0,0 l/m 0,0 km/h W-NW -3,9 C -1,6 C 0,0 km/h
12.12.2013 02:00 -1,6 C 84 % 1030,4 hPa 0,0 l/m 0,0 km/h W-NW -3,9 C -1,6 C 0,0 km/h
12.12.2013 03:00 -1,5 C 84 % 1030,3 hPa 0,0 l/m 0,0 km/h W-NW -3,8 C -1,5 C 0,0 km/h
12.12.2013 04:00 -1,4 C 83 % 1030,0 hPa 0,0 l/m 0,0 km/h W-NW -3,9 C -1,4 C 0,0 km/h
12.12.2013 05:00 -1,5 C 83 % 1029,9 hPa 0,0 l/m 0,0 km/h W-NW -4,0 C -1,5 C 0,0 km/h
12.12.2013 06:00 -1,5 C 83 % 1029,8 hPa 0,0 l/m 0,0 km/h W-NW -4,0 C -1,5 C 0,0 km/h
12.12.2013 07:00 -1,5 C 83 % 1029,6 hPa 0,0 l/m 0,0 km/h W-NW -4,0 C -1,5 C 0,0 km/h
12.12.2013 08:00 -1,6 C 83 % 1029,8 hPa 0,0 l/m 0,0 km/h W-NW -4,1 C -1,6 C 0,0 km/h
12.12.2013 09:00 -1,5 C 83 % 1029,9 hPa 0,0 l/m 0,0 km/h W-NW -4,0 C -1,5 C 0,0 km/h
12.12.2013 10:00 -1,1 C 82 % 1029,9 hPa 0,0 l/m 0,0 km/h W-NW -3,8 C -1,1 C 0,0 km/h
12.12.2013 11:00 -0,7 C 82 % 1029,6 hPa 0,0 l/m 0,0 km/h W-NW -3,4 C -0,7 C 0,0 km/h
12.12.2013 12:00 -0,4 C 82 % 1029,1 hPa 0,0 l/m 0,0 km/h W-NW -3,1 C -0,4 C 0,0 km/h
12.12.2013 13:00 -0,2 C 82 % 1028,6 hPa 0,0 l/m 0,0 km/h W-NW -2,9 C -0,2 C 0,0 km/h
12.12.2013 14:00 -0,5 C 84 % 1028,2 hPa 0,0 l/m 0,0 km/h W-NW -2,9 C -0,5 C 0,0 km/h
12.12.2013 15:00 -0,7 C 84 % 1028,0 hPa 0,0 l/m 0,0 km/h W-NW -3,1 C -0,7 C 0,0 km/h
12.12.2013 16:00 -1,1 C 84 % 1028,0 hPa 0,0 l/m 0,0 km/h W-NW -3,4 C -1,1 C 0,0 km/h
12.12.2013 17:00 -1,4 C 84 % 1027,9 hPa 0,0 l/m 0,0 km/h W-NW -3,7 C -1,4 C 0,0 km/h
12.12.2013 18:00 -1,1 C 83 % 1027,9 hPa 0,0 l/m 0,0 km/h W-NW -3,6 C -1,1 C 0,0 km/h
12.12.2013 19:00 -1,1 C 83 % 1027,6 hPa 0,0 l/m 0,0 km/h W-NW -3,6 C -1,1 C 0,0 km/h
12.12.2013 20:00 -1,2 C 82 % 1027,2 hPa 0,0 l/m 0,0 km/h W-NW -3,9 C -1,2 C 0,0 km/h
12.12.2013 21:00 -1,4 C 82 % 1027,1 hPa 0,0 l/m 0,0 km/h W-NW -4,1 C -1,4 C 0,0 km/h
12.12.2013 22:00 -1,4 C 82 % 1027,1 hPa 0,0 l/m 0,0 km/h W-NW -4,1 C -1,4 C 0,0 km/h
12.12.2013 23:00 -1,4 C 81 % 1027,0 hPa 0,0 l/m 0,0 km/h W-NW -4,2 C -1,4 C 0,0 km/h
13.12.2013 00:00 -1,6 C 81 % 1027,1 hPa 0,0 l/m 0,0 km/h W-NW -4,4 C -1,6 C 0,0 km/h
13.12.2013 01:00 -1,6 C 80 % 1026,6 hPa 0,0 l/m 0,0 km/h W-NW -4,6 C -1,6 C 0,0 km/h
13.12.2013 02:00 -1,7 C 80 % 1026,6 hPa 0,0 l/m 0,0 km/h W-NW -4,7 C -1,7 C 0,0 km/h
13.12.2013 03:00 -1,7 C 80 % 1026,2 hPa 0,0 l/m 0,0 km/h W-NW -4,7 C -1,7 C 0,0 km/h
13.12.2013 04:00 -2,1 C 80 % 1025,7 hPa 0,0 l/m 0,0 km/h W-NW -5,1 C -2,1 C 0,0 km/h
13.12.2013 05:00 -2,1 C 80 % 1025,4 hPa 0,0 l/m 0,0 km/h W-NW -5,1 C -2,1 C 0,0 km/h
13.12.2013 06:00 -2,1 C 80 % 1025,0 hPa 0,0 l/m 0,0 km/h W-NW -5,1 C -2,1 C 0,0 km/h
13.12.2013 07:00 -2,2 C 80 % 1024,8 hPa 0,0 l/m 0,0 km/h W-NW -5,2 C -2,2 C 0,0 km/h
13.12.2013 08:00 -2,6 C 81 % 1024,8 hPa 0,0 l/m 0,0 km/h W-NW -5,4 C -2,6 C 0,0 km/h
13.12.2013 09:00 -2,4 C 80 % 1024,9 hPa 0,0 l/m 0,0 km/h W-NW -5,4 C -2,4 C 0,0 km/h
13.12.2013 10:00 -1,7 C 80 % 1025,0 hPa 0,0 l/m 0,0 km/h W-NW -4,7 C -1,7 C 0,0 km/h
13.12.2013 11:00 -1,1 C 80 % 1024,5 hPa 0,0 l/m 0,0 km/h W-NW -4,1 C -1,1 C 0,0 km/h
13.12.2013 12:00 -0,9 C 81 % 1024,2 hPa 0,0 l/m 0,0 km/h W-NW -3,7 C -0,9 C 0,0 km/h
13.12.2013 13:00 -0,4 C 83 % 1023,2 hPa 0,0 l/m 0,0 km/h W-NW -2,9 C -0,4 C 0,0 km/h
13.12.2013 14:00 -0,5 C 84 % 1022,9 hPa 0,0 l/m 0,0 km/h W-NW -2,9 C -0,5 C 0,0 km/h
13.12.2013 15:00 -0,9 C 84 % 1022,9 hPa 0,0 l/m 0,0 km/h W-NW -3,3 C -0,9 C 0,0 km/h
13.12.2013 16:00 -1,4 C 84 % 1022,6 hPa 0,0 l/m 0,0 km/h W-NW -3,7 C -1,4 C 0,0 km/h
13.12.2013 17:00 -1,6 C 84 % 1022,6 hPa 0,0 l/m 0,0 km/h W-NW -3,9 C -1,6 C 0,0 km/h
13.12.2013 18:00 -1,7 C 83 % 1022,8 hPa 0,0 l/m 0,0 km/h W-NW -4,2 C -1,7 C 0,0 km/h
13.12.2013 19:00 -1,8 C 83 % 1023,1 hPa 0,0 l/m 0,0 km/h W-NW -4,3 C -1,8 C 0,0 km/h
13.12.2013 20:00 -2,1 C 82 % 1023,5 hPa 0,0 l/m 0,0 km/h W-NW -4,7 C -2,1 C 0,0 km/h
13.12.2013 21:00 -2,1 C 81 % 1023,7 hPa 0,0 l/m 0,0 km/h W-NW -4,9 C -2,1 C 0,0 km/h
13.12.2013 22:00 -1,9 C 81 % 1024,2 hPa 0,0 l/m 0,0 km/h W-NW -4,7 C -1,9 C 0,0 km/h
13.12.2013 23:00 -2,1 C 81 % 1024,1 hPa 0,0 l/m 0,0 km/h W-NW -4,9 C -2,1 C 0,0 km/h
14.12.2013 00:00 -2,2 C 81 % 1024,2 hPa 0,0 l/m 0,0 km/h W-NW -5,0 C -2,2 C 0,0 km/h
14.12.2013 01:00 -2,7 C 82 % 1024,3 hPa 0,0 l/m 0,0 km/h W-NW -5,3 C -2,7 C 0,0 km/h
14.12.2013 02:00 -4,1 C 82 % 1024,4 hPa 0,0 l/m 0,0 km/h W-NW -6,7 C -4,1 C 0,0 km/h
14.12.2013 03:00 -4,4 C 83 % 1024,4 hPa 0,0 l/m 0,0 km/h W-NW -6,8 C -4,4 C 0,0 km/h
14.12.2013 04:00 -3,7 C 82 % 1024,7 hPa 0,0 l/m 0,0 km/h W-NW -6,3 C -3,7 C 0,0 km/h
14.12.2013 05:00 -2,4 C 81 % 1024,8 hPa 0,0 l/m 0,0 km/h W-NW -5,2 C -2,4 C 0,0 km/h
14.12.2013 06:00 -1,4 C 80 % 1025,2 hPa 0,0 l/m 0,0 km/h W-NW -4,4 C -1,4 C 0,0 km/h
14.12.2013 07:00 -0,1 C 78 % 1025,3 hPa 0,0 l/m 0,0 km/h N-NW -3,5 C -0,1 C 0,0 km/h
14.12.2013 08:00 1,3 C 77 % 1025,7 hPa 0,0 l/m 0,0 km/h NW -2,3 C 1,3 C 0,0 km/h
14.12.2013 09:00 2,9 C 73 % 1027,0 hPa 0,5 l/m 0,0 km/h SW -1,5 C 2,9 C 0,0 km/h
14.12.2013 10:00 3,1 C 72 % 1027,9 hPa 0,5 l/m 0,0 km/h W-NW -1,4 C 3,1 C 0,0 km/h
14.12.2013 11:00 3,4 C 71 % 1028,1 hPa 1,0 l/m 0,0 km/h N-NO -1,3 C 3,4 C 0,0 km/h
14.12.2013 12:00 3,8 C 71 % 1028,5 hPa 0,5 l/m 0,0 km/h N-NO -1,0 C 3,8 C 0,0 km/h
14.12.2013 13:00 4,1 C 71 % 1028,1 hPa 0,0 l/m 0,0 km/h N-NO -0,7 C 4,1 C 0,0 km/h
14.12.2013 14:00 4,3 C 71 % 1028,1 hPa 0,0 l/m 0,0 km/h W-SW -0,5 C 4,3 C 0,0 km/h
14.12.2013 15:00 5,4 C 75 % 1028,9 hPa 0,0 l/m 18,1 km/h W-NW 1,3 C -1,9 C 10,1 km/h
14.12.2013 16:00 4,9 C 84 % 1029,9 hPa 0,0 l/m 0,0 km/h W 2,4 C 4,9 C 0,0 km/h
14.12.2013 17:00 4,1 C 85 % 1030,8 hPa 0,0 l/m 0,0 km/h S-SO 1,8 C 4,1 C 0,0 km/h
14.12.2013 18:00 3,0 C 85 % 1031,3 hPa 2,1 l/m 0,0 km/h N-NO 0,7 C 3,0 C 0,0 km/h
14.12.2013 19:00 1,9 C 84 % 1031,6 hPa 0,0 l/m 0,0 km/h NO -0,5 C 1,9 C 0,0 km/h
14.12.2013 20:00 -0,2 C 84 % 1032,3 hPa 0,0 l/m 0,0 km/h O-SO -2,6 C -0,2 C 0,0 km/h
14.12.2013 21:00 -0,3 C 83 % 1032,5 hPa 0,0 l/m 0,0 km/h O-SO -2,8 C -0,3 C 0,0 km/h
14.12.2013 22:00 -0,8 C 82 % 1032,1 hPa 0,0 l/m 0,0 km/h O-SO -3,5 C -0,8 C 0,0 km/h
14.12.2013 23:00 -0,6 C 81 % 1032,2 hPa 0,0 l/m 0,0 km/h O-SO -3,4 C -0,6 C 0,0 km/h
15.12.2013 00:00 -0,9 C 81 % 1032,1 hPa 0,0 l/m 0,0 km/h O-SO -3,7 C -0,9 C 0,0 km/h
15.12.2013 01:00 -1,1 C 81 % 1031,8 hPa 0,0 l/m 0,6 km/h O-SO -3,9 C -1,1 C 0,4 km/h
15.12.2013 02:00 -0,9 C 80 % 1031,2 hPa 0,0 l/m 0,0 km/h O-SO -3,9 C -0,9 C 0,0 km/h
15.12.2013 03:00 -0,3 C 78 % 1031,7 hPa 0,0 l/m 0,0 km/h O-SO -3,7 C -0,3 C 0,0 km/h
15.12.2013 04:00 -0,4 C 77 % 1030,6 hPa 0,0 l/m 1,3 km/h O-SO -3,9 C -0,4 C 0,7 km/h
15.12.2013 05:00 0,1 C 76 % 1029,4 hPa 0,0 l/m 15,6 km/h O-SO -3,6 C -7,2 C 8,6 km/h
15.12.2013 06:00 0,1 C 76 % 1029,7 hPa 0,0 l/m 0,0 km/h O-SO -3,6 C 0,1 C 0,0 km/h
15.12.2013 07:00 0,1 C 76 % 1029,7 hPa 0,0 l/m 0,0 km/h O-SO -3,6 C 0,1 C 0,0 km/h
15.12.2013 08:00 -0,6 C 75 % 1028,9 hPa 0,0 l/m 0,0 km/h O-SO -4,5 C -0,6 C 0,0 km/h
15.12.2013 09:00 0,1 C 74 % 1030,3 hPa 0,0 l/m 0,0 km/h O-SO -4,0 C 0,1 C 0,0 km/h
15.12.2013 10:00 2,3 C 68 % 1029,7 hPa 0,0 l/m 13,0 km/h W-NW -3,0 C -3,0 C 7,2 km/h
15.12.2013 11:00 3,3 C 73 % 1030,2 hPa 0,0 l/m 0,0 km/h SO -1,1 C 3,3 C 0,0 km/h
15.12.2013 12:00 5,0 C 77 % 1030,1 hPa 0,0 l/m 0,0 km/h S-SO 1,3 C 5,0 C 0,0 km/h
15.12.2013 13:00 6,7 C 87 % 1029,6 hPa 0,0 l/m 0,0 km/h W 4,7 C 6,7 C 0,0 km/h
15.12.2013 14:00 7,3 C 82 % 1029,2 hPa 0,0 l/m 0,0 km/h W-NW 4,4 C 7,3 C 0,0 km/h
15.12.2013 15:00 7,1 C 82 % 1029,0 hPa 0,0 l/m 0,0 km/h W-NW 4,2 C 7,1 C 0,0 km/h
15.12.2013 16:00 11,8 C 69 % 1029,0 hPa 0,0 l/m 0,0 km/h W-NW 6,3 C 11,8 C 0,0 km/h
15.12.2013 17:00 3,3 C 82 % 1029,1 hPa 0,0 l/m 0,0 km/h O-SO 0,5 C 3,3 C 0,0 km/h
15.12.2013 18:00 1,4 C 86 % 1029,0 hPa 0,0 l/m 0,0 km/h NO -0,7 C 1,4 C 0,0 km/h
15.12.2013 19:00 0,1 C 87 % 1029,0 hPa 0,0 l/m 0,0 km/h NO -1,8 C 0,1 C 0,0 km/h
15.12.2013 20:00 -0,9 C 87 % 1029,3 hPa 0,0 l/m 0,0 km/h NO -2,8 C -0,9 C 0,0 km/h
15.12.2013 21:00 -1,4 C 86 % 1029,1 hPa 0,0 l/m 0,0 km/h NO -3,4 C -1,4 C 0,0 km/h
15.12.2013 22:00 -1,9 C 86 % 1029,1 hPa 0,0 l/m 0,0 km/h NO -3,9 C -1,9 C 0,0 km/h
15.12.2013 23:00 -1,7 C 86 % 1029,3 hPa 0,0 l/m 0,0 km/h NO -3,7 C -1,7 C 0,0 km/h
Min-Datum _ 14.12.13 10.12.13 13.12.13 - 09.12.13 - 14.12.13 15.12.13 09.12.13
_ Min-Zeit 03:19 15:19 16:19 - 00:19 - 03:19 05:19 00:19
Minimum _ -4,4 C 58 % 1022,6 hPa - 0,0 km/h - -6,8 C -7,2 C 0,0 km/h
Max-Datum _ 10.12.13 15.12.13 10.12.13 14.12.13 14.12.13 - 15.12.13 10.12.13 14.12.13
_ Max-Zeit 15:19 13:19 22:19 18:19 15:19 - 16:19 15:19 15:19
Maximum _ 12,5 C 87 % 1032,6 hPa 2,1 l/m 18,1 km/h
W-NW
- 6,3 C 12,5 C 10,1 km/h
W-NW
Durchschnitt _ 0,6 C 81 % 1029,2 hPa #5,2 l/m 0,3 km/h W-NW -2,4 C 0,5 C 0,2 km/h
www.sexauwetter.de